sensor_id;sensor_type;location;lat;lon;timestamp;temperature;humidity
19646;DHT22;9971;52.446;13.452;2023-07-31T00:02:05;26.50;99.90
19646;DHT22;9971;52.446;13.452;2023-07-31T00:07:06;26.50;99.90
19646;DHT22;9971;52.446;13.452;2023-07-31T00:12:09;26.60;99.90
19646;DHT22;9971;52.446;13.452;2023-07-31T00:17:11;26.50;99.90
19646;DHT22;9971;52.446;13.452;2023-07-31T00:22:14;26.60;99.90
19646;DHT22;9971;52.446;13.452;2023-07-31T00:27:17;26.60;99.90
19646;DHT22;9971;52.446;13.452;2023-07-31T00:32:20;26.60;99.90
19646;DHT22;9971;52.446;13.452;2023-07-31T00:37:22;26.60;99.90
19646;DHT22;9971;52.446;13.452;2023-07-31T00:42:25;26.60;99.90
19646;DHT22;9971;52.446;13.452;2023-07-31T00:47:27;26.60;99.90
19646;DHT22;9971;52.446;13.452;2023-07-31T00:52:30;26.60;99.90
19646;DHT22;9971;52.446;13.452;2023-07-31T00:57:32;26.60;99.90
19646;DHT22;9971;52.446;13.452;2023-07-31T01:02:34;26.60;99.90
19646;DHT22;9971;52.446;13.452;2023-07-31T01:07:43;26.50;99.90
19646;DHT22;9971;52.446;13.452;2023-07-31T01:12:45;26.60;99.90
19646;DHT22;9971;52.446;13.452;2023-07-31T01:17:47;26.60;99.90
19646;DHT22;9971;52.446;13.452;2023-07-31T01:22:54;26.60;99.90
19646;DHT22;9971;52.446;13.452;2023-07-31T01:27:53;26.60;99.90
19646;DHT22;9971;52.446;13.452;2023-07-31T01:32:53;26.60;99.90
19646;DHT22;9971;52.446;13.452;2023-07-31T01:37:56;26.50;99.90
19646;DHT22;9971;52.446;13.452;2023-07-31T01:42:58;26.50;99.90
19646;DHT22;9971;52.446;13.452;2023-07-31T01:48:01;26.50;99.90
19646;DHT22;9971;52.446;13.452;2023-07-31T01:53:04;26.50;99.90
19646;DHT22;9971;52.446;13.452;2023-07-31T01:58:07;26.50;99.90
19646;DHT22;9971;52.446;13.452;2023-07-31T02:03:10;26.50;99.90
19646;DHT22;9971;52.446;13.452;2023-07-31T02:08:12;26.50;99.90
19646;DHT22;9971;52.446;13.452;2023-07-31T02:13:14;26.50;99.90
19646;DHT22;9971;52.446;13.452;2023-07-31T02:18:17;26.50;99.90
19646;DHT22;9971;52.446;13.452;2023-07-31T02:23:19;26.50;99.90
19646;DHT22;9971;52.446;13.452;2023-07-31T02:28:22;26.50;99.90
19646;DHT22;9971;52.446;13.452;2023-07-31T02:33:24;26.50;99.90
19646;DHT22;9971;52.446;13.452;2023-07-31T02:38:27;26.50;99.90
19646;DHT22;9971;52.446;13.452;2023-07-31T02:43:29;26.40;99.90
19646;DHT22;9971;52.446;13.452;2023-07-31T02:48:32;26.50;99.90
19646;DHT22;9971;52.446;13.452;2023-07-31T02:53:34;26.50;99.90
19646;DHT22;9971;52.446;13.452;2023-07-31T02:58:37;26.50;99.90
19646;DHT22;9971;52.446;13.452;2023-07-31T03:03:42;26.50;99.90
19646;DHT22;9971;52.446;13.452;2023-07-31T03:08:44;26.50;99.90
19646;DHT22;9971;52.446;13.452;2023-07-31T03:13:46;26.50;99.90
19646;DHT22;9971;52.446;13.452;2023-07-31T03:18:49;26.40;99.90
19646;DHT22;9971;52.446;13.452;2023-07-31T03:23:52;26.40;99.90
19646;DHT22;9971;52.446;13.452;2023-07-31T03:28:54;26.40;99.90
19646;DHT22;9971;52.446;13.452;2023-07-31T03:33:57;26.40;99.90
19646;DHT22;9971;52.446;13.452;2023-07-31T03:38:59;26.40;99.90
19646;DHT22;9971;52.446;13.452;2023-07-31T03:44:01;26.40;99.90
19646;DHT22;9971;52.446;13.452;2023-07-31T03:49:04;26.40;99.90
19646;DHT22;9971;52.446;13.452;2023-07-31T03:54:06;26.40;99.90
19646;DHT22;9971;52.446;13.452;2023-07-31T03:59:09;26.40;99.90
19646;DHT22;9971;52.446;13.452;2023-07-31T04:04:12;26.40;99.90
19646;DHT22;9971;52.446;13.452;2023-07-31T04:09:14;26.40;99.90
19646;DHT22;9971;52.446;13.452;2023-07-31T04:14:16;26.40;99.90
19646;DHT22;9971;52.446;13.452;2023-07-31T04:19:19;26.40;99.90
19646;DHT22;9971;52.446;13.452;2023-07-31T04:24:21;26.30;99.90
19646;DHT22;9971;52.446;13.452;2023-07-31T04:29:27;26.40;99.90
19646;DHT22;9971;52.446;13.452;2023-07-31T04:34:29;26.30;99.90
19646;DHT22;9971;52.446;13.452;2023-07-31T04:39:32;26.30;99.90
19646;DHT22;9971;52.446;13.452;2023-07-31T04:44:38;26.30;99.90
19646;DHT22;9971;52.446;13.452;2023-07-31T04:49:41;26.30;99.90
19646;DHT22;9971;52.446;13.452;2023-07-31T04:54:43;26.30;99.90
19646;DHT22;9971;52.446;13.452;2023-07-31T04:59:46;26.30;99.90
19646;DHT22;9971;52.446;13.452;2023-07-31T05:04:48;26.30;99.90
19646;DHT22;9971;52.446;13.452;2023-07-31T05:09:51;26.30;99.90
19646;DHT22;9971;52.446;13.452;2023-07-31T05:14:53;26.30;99.90
19646;DHT22;9971;52.446;13.452;2023-07-31T05:19:55;26.30;99.90
19646;DHT22;9971;52.446;13.452;2023-07-31T05:24:58;26.30;99.90
19646;DHT22;9971;52.446;13.452;2023-07-31T05:30:01;26.30;99.90
19646;DHT22;9971;52.446;13.452;2023-07-31T05:35:06;26.30;99.90
19646;DHT22;9971;52.446;13.452;2023-07-31T05:40:09;26.30;99.90
19646;DHT22;9971;52.446;13.452;2023-07-31T05:45:12;26.30;99.90
19646;DHT22;9971;52.446;13.452;2023-07-31T05:50:14;26.30;99.90
19646;DHT22;9971;52.446;13.452;2023-07-31T05:55:17;26.30;99.90
19646;DHT22;9971;52.446;13.452;2023-07-31T06:00:19;26.30;99.90
19646;DHT22;9971;52.446;13.452;2023-07-31T06:05:22;26.30;99.90
19646;DHT22;9971;52.446;13.452;2023-07-31T06:10:24;26.30;99.90
19646;DHT22;9971;52.446;13.452;2023-07-31T06:15:27;26.30;99.90
19646;DHT22;9971;52.446;13.452;2023-07-31T06:20:31;26.30;99.90
19646;DHT22;9971;52.446;13.452;2023-07-31T06:25:34;26.30;99.90
19646;DHT22;9971;52.446;13.452;2023-07-31T06:30:36;26.30;99.90
19646;DHT22;9971;52.446;13.452;2023-07-31T06:35:39;26.30;99.90
19646;DHT22;9971;52.446;13.452;2023-07-31T06:40:41;26.20;99.90
19646;DHT22;9971;52.446;13.452;2023-07-31T06:45:44;26.20;99.90
19646;DHT22;9971;52.446;13.452;2023-07-31T06:50:46;26.20;99.90
19646;DHT22;9971;52.446;13.452;2023-07-31T06:55:50;26.20;99.90
19646;DHT22;9971;52.446;13.452;2023-07-31T07:00:52;26.20;99.90
19646;DHT22;9971;52.446;13.452;2023-07-31T07:05:55;26.20;99.90
19646;DHT22;9971;52.446;13.452;2023-07-31T07:10:57;26.20;99.90
19646;DHT22;9971;52.446;13.452;2023-07-31T07:16:01;26.20;99.90
19646;DHT22;9971;52.446;13.452;2023-07-31T07:21:03;26.20;99.90
19646;DHT22;9971;52.446;13.452;2023-07-31T07:26:06;26.20;99.90
19646;DHT22;9971;52.446;13.452;2023-07-31T07:31:09;26.20;99.90
19646;DHT22;9971;52.446;13.452;2023-07-31T07:36:12;26.10;99.90
19646;DHT22;9971;52.446;13.452;2023-07-31T07:41:14;26.20;99.90
19646;DHT22;9971;52.446;13.452;2023-07-31T07:46:17;26.20;99.90
19646;DHT22;9971;52.446;13.452;2023-07-31T07:51:19;26.20;99.90
19646;DHT22;9971;52.446;13.452;2023-07-31T07:56:21;26.10;99.90
19646;DHT22;9971;52.446;13.452;2023-07-31T08:01:27;26.20;99.90
19646;DHT22;9971;52.446;13.452;2023-07-31T08:06:30;26.20;99.90
19646;DHT22;9971;52.446;13.452;2023-07-31T08:11:32;22.70;99.90
19646;DHT22;9971;52.446;13.452;2023-07-31T08:16:35;20.60;99.90
19646;DHT22;9971;52.446;13.452;2023-07-31T08:21:37;19.60;99.90
19646;DHT22;9971;52.446;13.452;2023-07-31T08:26:39;19.30;99.90
19646;DHT22;9971;52.446;13.452;2023-07-31T08:31:42;19.00;99.90
19646;DHT22;9971;52.446;13.452;2023-07-31T08:36:44;19.00;99.90
19646;DHT22;9971;52.446;13.452;2023-07-31T08:41:47;19.00;99.90
19646;DHT22;9971;52.446;13.452;2023-07-31T08:46:48;19.00;99.90
19646;DHT22;9971;52.446;13.452;2023-07-31T08:51:50;19.10;99.90
19646;DHT22;9971;52.446;13.452;2023-07-31T08:56:52;19.10;99.90
19646;DHT22;9971;52.446;13.452;2023-07-31T09:01:55;19.20;99.90
19646;DHT22;9971;52.446;13.452;2023-07-31T09:06:57;19.20;99.90
19646;DHT22;9971;52.446;13.452;2023-07-31T09:11:59;19.30;99.90
19646;DHT22;9971;52.446;13.452;2023-07-31T09:17:02;19.40;99.90
19646;DHT22;9971;52.446;13.452;2023-07-31T09:22:05;19.30;99.90
19646;DHT22;9971;52.446;13.452;2023-07-31T09:27:07;19.40;99.90
19646;DHT22;9971;52.446;13.452;2023-07-31T09:32:15;19.20;99.90
19646;DHT22;9971;52.446;13.452;2023-07-31T09:37:12;19.20;99.90
19646;DHT22;9971;52.446;13.452;2023-07-31T09:42:25;19.10;99.90
19646;DHT22;9971;52.446;13.452;2023-07-31T09:47:32;18.90;99.90
19646;DHT22;9971;52.446;13.452;2023-07-31T09:52:36;19.00;99.90
19646;DHT22;9971;52.446;13.452;2023-07-31T09:57:40;19.10;99.90
19646;DHT22;9971;52.446;13.452;2023-07-31T10:02:44;19.20;99.90
19646;DHT22;9971;52.446;13.452;2023-07-31T10:07:51;19.30;99.90
19646;DHT22;9971;52.446;13.452;2023-07-31T10:12:55;19.40;99.90
19646;DHT22;9971;52.446;13.452;2023-07-31T10:18:02;19.50;99.90
19646;DHT22;9971;52.446;13.452;2023-07-31T10:23:08;19.60;99.90
19646;DHT22;9971;52.446;13.452;2023-07-31T10:28:12;19.70;99.90
19646;DHT22;9971;52.446;13.452;2023-07-31T10:33:14;19.70;99.90
19646;DHT22;9971;52.446;13.452;2023-07-31T10:38:16;19.80;99.90
19646;DHT22;9971;52.446;13.452;2023-07-31T10:43:24;19.90;99.90
19646;DHT22;9971;52.446;13.452;2023-07-31T10:48:27;20.10;99.90
19646;DHT22;9971;52.446;13.452;2023-07-31T10:53:31;20.50;99.90
19646;DHT22;9971;52.446;13.452;2023-07-31T11:03:56;21.80;99.90
19646;DHT22;9971;52.446;13.452;2023-07-31T11:09:02;22.00;99.90
19646;DHT22;9971;52.446;13.452;2023-07-31T11:19:33;22.60;99.90
19646;DHT22;9971;52.446;13.452;2023-07-31T11:24:35;22.60;99.90
19646;DHT22;9971;52.446;13.452;2023-07-31T11:29:39;22.60;99.90
19646;DHT22;9971;52.446;13.452;2023-07-31T11:34:51;22.60;99.90
19646;DHT22;9971;52.446;13.452;2023-07-31T11:40:03;22.70;99.90
19646;DHT22;9971;52.446;13.452;2023-07-31T11:45:07;22.70;99.90
19646;DHT22;9971;52.446;13.452;2023-07-31T11:50:15;22.80;99.90
19646;DHT22;9971;52.446;13.452;2023-07-31T11:55:29;22.70;99.90
19646;DHT22;9971;52.446;13.452;2023-07-31T12:00:31;22.60;99.90
19646;DHT22;9971;52.446;13.452;2023-07-31T12:05:34;22.50;99.90
19646;DHT22;9971;52.446;13.452;2023-07-31T12:10:38;22.40;99.90
19646;DHT22;9971;52.446;13.452;2023-07-31T12:15:42;22.40;99.90
19646;DHT22;9971;52.446;13.452;2023-07-31T12:20:46;22.40;99.90
19646;DHT22;9971;52.446;13.452;2023-07-31T12:25:54;22.50;99.90
19646;DHT22;9971;52.446;13.452;2023-07-31T12:30:52;22.70;99.90
19646;DHT22;9971;52.446;13.452;2023-07-31T12:35:55;22.50;99.90
19646;DHT22;9971;52.446;13.452;2023-07-31T12:40:58;22.50;99.90
19646;DHT22;9971;52.446;13.452;2023-07-31T12:46:01;22.60;99.90
19646;DHT22;9971;52.446;13.452;2023-07-31T12:51:03;22.80;99.90
19646;DHT22;9971;52.446;13.452;2023-07-31T12:56:06;23.10;99.90
19646;DHT22;9971;52.446;13.452;2023-07-31T13:01:08;23.20;99.90
19646;DHT22;9971;52.446;13.452;2023-07-31T13:06:12;23.40;99.90
19646;DHT22;9971;52.446;13.452;2023-07-31T13:11:14;23.50;99.90
19646;DHT22;9971;52.446;13.452;2023-07-31T13:16:18;23.60;99.90
19646;DHT22;9971;52.446;13.452;2023-07-31T13:21:21;23.70;99.90
19646;DHT22;9971;52.446;13.452;2023-07-31T13:26:24;23.80;99.90
19646;DHT22;9971;52.446;13.452;2023-07-31T13:31:26;23.80;99.90
19646;DHT22;9971;52.446;13.452;2023-07-31T13:36:31;23.90;99.90
19646;DHT22;9971;52.446;13.452;2023-07-31T13:41:33;23.90;99.90
19646;DHT22;9971;52.446;13.452;2023-07-31T13:46:36;23.90;99.90
19646;DHT22;9971;52.446;13.452;2023-07-31T13:51:39;23.90;99.90
19646;DHT22;9971;52.446;13.452;2023-07-31T13:56:42;24.00;99.90
19646;DHT22;9971;52.446;13.452;2023-07-31T14:01:44;24.00;99.90
19646;DHT22;9971;52.446;13.452;2023-07-31T14:06:46;24.00;99.90
19646;DHT22;9971;52.446;13.452;2023-07-31T14:11:50;24.10;99.90
19646;DHT22;9971;52.446;13.452;2023-07-31T14:16:53;24.10;99.90
19646;DHT22;9971;52.446;13.452;2023-07-31T14:21:57;24.20;99.90
19646;DHT22;9971;52.446;13.452;2023-07-31T14:26:58;24.20;99.90
19646;DHT22;9971;52.446;13.452;2023-07-31T14:32:00;24.30;99.90
19646;DHT22;9971;52.446;13.452;2023-07-31T14:37:03;24.30;99.90
19646;DHT22;9971;52.446;13.452;2023-07-31T14:42:07;24.30;99.90
19646;DHT22;9971;52.446;13.452;2023-07-31T14:47:10;24.40;99.90
19646;DHT22;9971;52.446;13.452;2023-07-31T14:52:12;24.40;99.90
19646;DHT22;9971;52.446;13.452;2023-07-31T14:57:15;24.40;99.90
19646;DHT22;9971;52.446;13.452;2023-07-31T15:02:17;24.50;99.90
19646;DHT22;9971;52.446;13.452;2023-07-31T15:07:22;24.50;99.90
19646;DHT22;9971;52.446;13.452;2023-07-31T15:12:25;24.50;99.90
19646;DHT22;9971;52.446;13.452;2023-07-31T15:17:27;24.50;99.90
19646;DHT22;9971;52.446;13.452;2023-07-31T15:22:30;24.50;99.90
19646;DHT22;9971;52.446;13.452;2023-07-31T15:27:33;24.60;99.90
19646;DHT22;9971;52.446;13.452;2023-07-31T15:32:36;24.60;99.90
19646;DHT22;9971;52.446;13.452;2023-07-31T15:37:38;24.70;99.90
19646;DHT22;9971;52.446;13.452;2023-07-31T15:42:41;24.70;99.90
19646;DHT22;9971;52.446;13.452;2023-07-31T15:47:44;24.70;99.90
19646;DHT22;9971;52.446;13.452;2023-07-31T15:52:47;24.80;99.90
19646;DHT22;9971;52.446;13.452;2023-07-31T15:57:50;24.80;99.90
19646;DHT22;9971;52.446;13.452;2023-07-31T16:02:55;24.90;99.90
19646;DHT22;9971;52.446;13.452;2023-07-31T16:07:58;24.90;99.90
19646;DHT22;9971;52.446;13.452;2023-07-31T16:13:01;24.90;99.90
19646;DHT22;9971;52.446;13.452;2023-07-31T16:18:03;24.90;99.90
19646;DHT22;9971;52.446;13.452;2023-07-31T16:23:06;24.90;99.90
19646;DHT22;9971;52.446;13.452;2023-07-31T16:28:09;24.90;99.90
19646;DHT22;9971;52.446;13.452;2023-07-31T16:33:12;24.90;99.90
19646;DHT22;9971;52.446;13.452;2023-07-31T16:38:14;24.90;99.90
19646;DHT22;9971;52.446;13.452;2023-07-31T16:43:17;24.80;99.90
19646;DHT22;9971;52.446;13.452;2023-07-31T16:48:20;24.80;99.90
19646;DHT22;9971;52.446;13.452;2023-07-31T16:53:24;24.90;99.90
19646;DHT22;9971;52.446;13.452;2023-07-31T16:58:26;24.90;99.90
19646;DHT22;9971;52.446;13.452;2023-07-31T17:03:31;24.90;99.90
19646;DHT22;9971;52.446;13.452;2023-07-31T17:08:34;24.90;99.90
19646;DHT22;9971;52.446;13.452;2023-07-31T17:13:36;24.90;99.90
19646;DHT22;9971;52.446;13.452;2023-07-31T17:18:40;24.90;99.90
19646;DHT22;9971;52.446;13.452;2023-07-31T17:23:44;24.90;99.90
19646;DHT22;9971;52.446;13.452;2023-07-31T17:28:47;24.90;99.90
19646;DHT22;9971;52.446;13.452;2023-07-31T17:33:49;24.90;99.90
19646;DHT22;9971;52.446;13.452;2023-07-31T17:38:52;24.80;99.90
19646;DHT22;9971;52.446;13.452;2023-07-31T17:43:55;24.80;99.90
19646;DHT22;9971;52.446;13.452;2023-07-31T17:48:59;24.70;99.90
19646;DHT22;9971;52.446;13.452;2023-07-31T17:54:02;24.70;99.90
19646;DHT22;9971;52.446;13.452;2023-07-31T17:59:04;24.70;99.90
19646;DHT22;9971;52.446;13.452;2023-07-31T18:04:07;24.70;99.90
19646;DHT22;9971;52.446;13.452;2023-07-31T18:09:11;24.70;99.90
19646;DHT22;9971;52.446;13.452;2023-07-31T18:14:13;24.60;99.90
19646;DHT22;9971;52.446;13.452;2023-07-31T18:19:17;24.60;99.90
19646;DHT22;9971;52.446;13.452;2023-07-31T18:24:20;24.60;99.90
19646;DHT22;9971;52.446;13.452;2023-07-31T18:29:23;24.60;99.90
19646;DHT22;9971;52.446;13.452;2023-07-31T18:34:25;24.60;99.90
19646;DHT22;9971;52.446;13.452;2023-07-31T18:39:30;24.50;99.90
19646;DHT22;9971;52.446;13.452;2023-07-31T18:44:33;24.60;99.90
19646;DHT22;9971;52.446;13.452;2023-07-31T18:49:35;24.60;99.90
19646;DHT22;9971;52.446;13.452;2023-07-31T18:54:39;24.70;99.90
19646;DHT22;9971;52.446;13.452;2023-07-31T18:59:44;24.70;99.90
19646;DHT22;9971;52.446;13.452;2023-07-31T19:04:47;24.70;99.90
19646;DHT22;9971;52.446;13.452;2023-07-31T19:09:50;24.70;99.90
19646;DHT22;9971;52.446;13.452;2023-07-31T19:14:52;24.80;99.90
19646;DHT22;9971;52.446;13.452;2023-07-31T19:19:56;24.80;99.90
19646;DHT22;9971;52.446;13.452;2023-07-31T19:24:58;24.90;99.90
19646;DHT22;9971;52.446;13.452;2023-07-31T19:30:01;24.90;99.90
19646;DHT22;9971;52.446;13.452;2023-07-31T19:35:06;25.00;99.90
19646;DHT22;9971;52.446;13.452;2023-07-31T19:40:09;25.00;99.90
19646;DHT22;9971;52.446;13.452;2023-07-31T19:45:13;25.10;99.90
19646;DHT22;9971;52.446;13.452;2023-07-31T19:50:16;25.10;99.90
19646;DHT22;9971;52.446;13.452;2023-07-31T19:55:18;25.10;99.90
19646;DHT22;9971;52.446;13.452;2023-07-31T20:00:23;25.10;99.90
19646;DHT22;9971;52.446;13.452;2023-07-31T20:05:27;25.20;99.90
19646;DHT22;9971;52.446;13.452;2023-07-31T20:10:32;25.10;99.90
19646;DHT22;9971;52.446;13.452;2023-07-31T20:15:35;25.20;99.90
19646;DHT22;9971;52.446;13.452;2023-07-31T20:20:38;25.30;99.90
19646;DHT22;9971;52.446;13.452;2023-07-31T20:25:41;25.30;99.90
19646;DHT22;9971;52.446;13.452;2023-07-31T20:30:44;25.30;99.90
19646;DHT22;9971;52.446;13.452;2023-07-31T20:35:47;25.30;99.90
19646;DHT22;9971;52.446;13.452;2023-07-31T20:40:50;25.30;99.90
19646;DHT22;9971;52.446;13.452;2023-07-31T20:45:52;25.40;99.90
19646;DHT22;9971;52.446;13.452;2023-07-31T20:50:58;25.40;99.90
19646;DHT22;9971;52.446;13.452;2023-07-31T20:55:58;25.40;99.90
19646;DHT22;9971;52.446;13.452;2023-07-31T21:01:01;25.40;99.90
19646;DHT22;9971;52.446;13.452;2023-07-31T21:06:04;25.50;99.90
19646;DHT22;9971;52.446;13.452;2023-07-31T21:11:08;25.50;99.90
19646;DHT22;9971;52.446;13.452;2023-07-31T21:16:11;25.50;99.90
19646;DHT22;9971;52.446;13.452;2023-07-31T21:21:13;25.50;99.90
19646;DHT22;9971;52.446;13.452;2023-07-31T21:26:16;25.50;99.90
19646;DHT22;9971;52.446;13.452;2023-07-31T21:31:18;25.50;99.90
19646;DHT22;9971;52.446;13.452;2023-07-31T21:36:22;25.50;99.90
19646;DHT22;9971;52.446;13.452;2023-07-31T21:41:26;25.60;99.90
19646;DHT22;9971;52.446;13.452;2023-07-31T21:46:29;25.50;99.90
19646;DHT22;9971;52.446;13.452;2023-07-31T21:51:33;25.50;99.90
19646;DHT22;9971;52.446;13.452;2023-07-31T21:56:34;25.60;99.90
19646;DHT22;9971;52.446;13.452;2023-07-31T22:01:37;25.60;99.90
19646;DHT22;9971;52.446;13.452;2023-07-31T22:06:39;25.60;99.90
19646;DHT22;9971;52.446;13.452;2023-07-31T22:11:43;25.60;99.90
19646;DHT22;9971;52.446;13.452;2023-07-31T22:16:46;25.60;99.90
19646;DHT22;9971;52.446;13.452;2023-07-31T22:21:48;25.60;99.90
19646;DHT22;9971;52.446;13.452;2023-07-31T22:26:50;25.60;99.90
19646;DHT22;9971;52.446;13.452;2023-07-31T22:31:53;25.60;99.90
19646;DHT22;9971;52.446;13.452;2023-07-31T22:36:55;25.70;99.90
19646;DHT22;9971;52.446;13.452;2023-07-31T22:41:58;25.70;99.90
19646;DHT22;9971;52.446;13.452;2023-07-31T22:47:00;25.60;99.90
19646;DHT22;9971;52.446;13.452;2023-07-31T22:52:03;25.70;99.90
19646;DHT22;9971;52.446;13.452;2023-07-31T22:57:06;25.60;99.90
19646;DHT22;9971;52.446;13.452;2023-07-31T23:02:08;25.70;99.90
19646;DHT22;9971;52.446;13.452;2023-07-31T23:07:11;25.70;99.90
19646;DHT22;9971;52.446;13.452;2023-07-31T23:12:14;25.70;99.90
19646;DHT22;9971;52.446;13.452;2023-07-31T23:17:16;25.70;99.90
19646;DHT22;9971;52.446;13.452;2023-07-31T23:22:19;25.70;99.90
19646;DHT22;9971;52.446;13.452;2023-07-31T23:27:22;25.70;99.90
19646;DHT22;9971;52.446;13.452;2023-07-31T23:32:25;25.70;99.90
19646;DHT22;9971;52.446;13.452;2023-07-31T23:37:28;25.70;99.90
19646;DHT22;9971;52.446;13.452;2023-07-31T23:42:30;25.60;99.90
19646;DHT22;9971;52.446;13.452;2023-07-31T23:47:32;25.60;99.90
19646;DHT22;9971;52.446;13.452;2023-07-31T23:52:35;25.70;99.90
19646;DHT22;9971;52.446;13.452;2023-07-31T23:57:37;25.60;99.90
